sensor_id;sensor_type;location;lat;lon;timestamp;pressure;altitude;pressure_sealevel;temperature;humidity
51289;BME280;37372;52.294;5.152;2024-01-30T00:00:27;102626.84;;;6.32;84.00
51289;BME280;37372;52.294;5.152;2024-01-30T00:03:06;102627.75;;;6.32;84.24
51289;BME280;37372;52.294;5.152;2024-01-30T00:05:44;102623.34;;;6.31;84.12
51289;BME280;37372;52.294;5.152;2024-01-30T00:08:10;102624.41;;;6.35;84.19
51289;BME280;37372;52.294;5.152;2024-01-30T00:10:44;102612.16;;;6.34;83.86
51289;BME280;37372;52.294;5.152;2024-01-30T00:13:10;102621.72;;;6.33;84.15
51289;BME280;37372;52.294;5.152;2024-01-30T00:15:49;102615.59;;;6.33;84.17
51289;BME280;37372;52.294;5.152;2024-01-30T00:18:14;102622.34;;;6.29;83.98
51289;BME280;37372;52.294;5.152;2024-01-30T00:20:43;102617.97;;;6.28;84.25
51289;BME280;37372;52.294;5.152;2024-01-30T00:25:56;102612.75;;;6.28;84.35
51289;BME280;37372;52.294;5.152;2024-01-30T00:31:31;102616.03;;;6.24;84.21
51289;BME280;37372;52.294;5.152;2024-01-30T00:33:56;102614.63;;;6.31;83.96
51289;BME280;37372;52.294;5.152;2024-01-30T00:36:22;102612.03;;;6.31;84.12
51289;BME280;37372;52.294;5.152;2024-01-30T00:38:47;102599.94;;;6.33;84.08
51289;BME280;37372;52.294;5.152;2024-01-30T00:41:22;102605.47;;;6.39;84.38
51289;BME280;37372;52.294;5.152;2024-01-30T00:44:24;102603.81;;;6.41;84.14
51289;BME280;37372;52.294;5.152;2024-01-30T00:49:30;102609.03;;;6.41;83.79
51289;BME280;37372;52.294;5.152;2024-01-30T00:51:56;102610.06;;;6.45;83.71
51289;BME280;37372;52.294;5.152;2024-01-30T00:54:22;102602.41;;;6.48;84.02
51289;BME280;37372;52.294;5.152;2024-01-30T00:56:47;102601.19;;;6.59;83.44
51289;BME280;37372;52.294;5.152;2024-01-30T00:59:19;102610.97;;;6.63;83.45
51289;BME280;37372;52.294;5.152;2024-01-30T01:01:50;102616.19;;;6.63;83.36
51289;BME280;37372;52.294;5.152;2024-01-30T01:04:30;102611.88;;;6.64;83.55
51289;BME280;37372;52.294;5.152;2024-01-30T01:06:56;102598.97;;;6.67;83.34
51289;BME280;37372;52.294;5.152;2024-01-30T01:09:24;102598.16;;;6.68;83.37
51289;BME280;37372;52.294;5.152;2024-01-30T01:11:53;102589.50;;;6.69;83.22
51289;BME280;37372;52.294;5.152;2024-01-30T01:14:18;102591.44;;;6.73;83.15
51289;BME280;37372;52.294;5.152;2024-01-30T01:16:46;102589.75;;;6.75;82.82
51289;BME280;37372;52.294;5.152;2024-01-30T01:19:21;102595.91;;;6.76;82.57
51289;BME280;37372;52.294;5.152;2024-01-30T01:21:57;102589.75;;;6.75;82.88
51289;BME280;37372;52.294;5.152;2024-01-30T01:24:23;102587.97;;;6.74;82.81
51289;BME280;37372;52.294;5.152;2024-01-30T01:26:49;102592.38;;;6.75;82.70
51289;BME280;37372;52.294;5.152;2024-01-30T01:29:14;102595.78;;;6.74;82.69
51289;BME280;37372;52.294;5.152;2024-01-30T01:32:01;102597.59;;;6.75;82.45
51289;BME280;37372;52.294;5.152;2024-01-30T01:34:32;102600.22;;;6.75;82.45
51289;BME280;37372;52.294;5.152;2024-01-30T01:37:02;102588.72;;;6.72;82.47
51289;BME280;37372;52.294;5.152;2024-01-30T01:39:44;102599.16;;;6.72;82.55
51289;BME280;37372;52.294;5.152;2024-01-30T01:42:11;102600.38;;;6.78;82.42
51289;BME280;37372;52.294;5.152;2024-01-30T01:44:44;102596.03;;;6.79;81.67
51289;BME280;37372;52.294;5.152;2024-01-30T01:47:09;102601.13;;;6.76;82.15
51289;BME280;37372;52.294;5.152;2024-01-30T01:49:49;102596.03;;;6.79;82.09
51289;BME280;37372;52.294;5.152;2024-01-30T01:52:15;102596.84;;;6.78;81.80
51289;BME280;37372;52.294;5.152;2024-01-30T01:54:41;102594.72;;;6.69;82.21
51289;BME280;37372;52.294;5.152;2024-01-30T01:57:10;102599.78;;;6.66;82.23
51289;BME280;37372;52.294;5.152;2024-01-30T01:59:42;102591.00;;;6.64;82.18
51289;BME280;37372;52.294;5.152;2024-01-30T02:02:11;102586.94;;;6.71;81.90
51289;BME280;37372;52.294;5.152;2024-01-30T02:04:40;102583.44;;;6.70;82.02
51289;BME280;37372;52.294;5.152;2024-01-30T02:07:19;102587.69;;;6.68;81.75
51289;BME280;37372;52.294;5.152;2024-01-30T02:09:45;102591.88;;;6.64;81.98
51289;BME280;37372;52.294;5.152;2024-01-30T02:12:10;102576.97;;;6.62;82.42
51289;BME280;37372;52.294;5.152;2024-01-30T02:14:46;102572.63;;;6.62;82.37
51289;BME280;37372;52.294;5.152;2024-01-30T02:17:17;102565.75;;;6.64;82.33
51289;BME280;37372;52.294;5.152;2024-01-30T02:19:53;102556.22;;;6.65;82.18
51289;BME280;37372;52.294;5.152;2024-01-30T02:22:23;102554.56;;;6.67;82.02
51289;BME280;37372;52.294;5.152;2024-01-30T02:25:01;102573.97;;;6.72;81.89
51289;BME280;37372;52.294;5.152;2024-01-30T02:27:28;102558.31;;;6.72;81.82
51289;BME280;37372;52.294;5.152;2024-01-30T02:29:53;102558.38;;;6.74;81.86
51289;BME280;37372;52.294;5.152;2024-01-30T02:32:28;102560.09;;;6.73;81.76
51289;BME280;37372;52.294;5.152;2024-01-30T02:35:01;102586.63;;;6.82;81.51
51289;BME280;37372;52.294;5.152;2024-01-30T02:37:26;102586.34;;;6.76;81.58
51289;BME280;37372;52.294;5.152;2024-01-30T02:39:52;102567.00;;;6.73;81.43
51289;BME280;37372;52.294;5.152;2024-01-30T02:42:17;102558.44;;;6.75;81.41
51289;BME280;37372;52.294;5.152;2024-01-30T02:47:34;102545.38;;;6.75;81.49
51289;BME280;37372;52.294;5.152;2024-01-30T02:50:20;102547.16;;;6.76;81.45
51289;BME280;37372;52.294;5.152;2024-01-30T02:52:46;102553.38;;;6.78;81.56
51289;BME280;37372;52.294;5.152;2024-01-30T02:55:14;102548.00;;;6.75;81.59
51289;BME280;37372;52.294;5.152;2024-01-30T02:57:43;102542.75;;;6.75;81.47
51289;BME280;37372;52.294;5.152;2024-01-30T03:00:09;102547.25;;;6.78;81.46
51289;BME280;37372;52.294;5.152;2024-01-30T03:02:47;102542.00;;;6.78;81.66
51289;BME280;37372;52.294;5.152;2024-01-30T03:05:53;102538.47;;;6.76;80.96
51289;BME280;37372;52.294;5.152;2024-01-30T03:08:18;102534.56;;;6.68;81.32
51289;BME280;37372;52.294;5.152;2024-01-30T03:10:47;102540.53;;;6.65;81.56
51289;BME280;37372;52.294;5.152;2024-01-30T03:13:17;102538.78;;;6.64;81.45
51289;BME280;37372;52.294;5.152;2024-01-30T03:16:09;102538.91;;;6.67;81.50
51289;BME280;37372;52.294;5.152;2024-01-30T03:18:38;102534.31;;;6.61;81.33
51289;BME280;37372;52.294;5.152;2024-01-30T03:21:03;102532.44;;;6.59;81.80
51289;BME280;37372;52.294;5.152;2024-01-30T03:23:37;102514.59;;;6.68;81.53
51289;BME280;37372;52.294;5.152;2024-01-30T03:26:03;102518.84;;;6.66;81.45
51289;BME280;37372;52.294;5.152;2024-01-30T03:28:31;102515.72;;;6.73;81.68
51289;BME280;37372;52.294;5.152;2024-01-30T03:30:58;102511.25;;;6.71;81.49
51289;BME280;37372;52.294;5.152;2024-01-30T03:33:46;102503.41;;;6.71;81.46
51289;BME280;37372;52.294;5.152;2024-01-30T03:36:25;102485.34;;;6.75;81.32
51289;BME280;37372;52.294;5.152;2024-01-30T03:39:00;102490.50;;;6.74;81.36
51289;BME280;37372;52.294;5.152;2024-01-30T03:41:31;102488.16;;;6.80;81.07
51289;BME280;37372;52.294;5.152;2024-01-30T03:44:09;102494.13;;;6.77;81.08
51289;BME280;37372;52.294;5.152;2024-01-30T03:46:57;102499.34;;;6.77;81.01
51289;BME280;37372;52.294;5.152;2024-01-30T03:49:21;102500.19;;;6.76;81.07
51289;BME280;37372;52.294;5.152;2024-01-30T03:51:47;102501.06;;;6.77;81.21
51289;BME280;37372;52.294;5.152;2024-01-30T03:54:19;102508.13;;;6.79;81.00
51289;BME280;37372;52.294;5.152;2024-01-30T03:56:45;102507.19;;;6.77;80.83
51289;BME280;37372;52.294;5.152;2024-01-30T03:59:10;102515.03;;;6.77;81.15
51289;BME280;37372;52.294;5.152;2024-01-30T04:04:51;102505.06;;;6.88;80.84
51289;BME280;37372;52.294;5.152;2024-01-30T04:07:47;102503.63;;;6.95;80.74
51289;BME280;37372;52.294;5.152;2024-01-30T04:10:12;102511.31;;;6.92;80.61
51289;BME280;37372;52.294;5.152;2024-01-30T04:12:42;102514.28;;;6.99;80.72
51289;BME280;37372;52.294;5.152;2024-01-30T04:15:14;102514.19;;;6.98;80.39
51289;BME280;37372;52.294;5.152;2024-01-30T04:17:51;102506.59;;;7.03;80.49
51289;BME280;37372;52.294;5.152;2024-01-30T04:20:21;102501.47;;;7.06;80.11
51289;BME280;37372;52.294;5.152;2024-01-30T04:22:46;102500.59;;;7.05;80.03
51289;BME280;37372;52.294;5.152;2024-01-30T04:25:12;102505.69;;;7.02;80.16
51289;BME280;37372;52.294;5.152;2024-01-30T04:27:48;102501.28;;;7.01;80.48
51289;BME280;37372;52.294;5.152;2024-01-30T04:30:31;102507.63;;;7.06;79.82
51289;BME280;37372;52.294;5.152;2024-01-30T04:33:10;102502.31;;;7.05;80.19
51289;BME280;37372;52.294;5.152;2024-01-30T04:35:46;102491.84;;;7.05;80.15
51289;BME280;37372;52.294;5.152;2024-01-30T04:38:12;102491.09;;;7.07;80.50
51289;BME280;37372;52.294;5.152;2024-01-30T04:40:39;102492.69;;;7.04;80.14
51289;BME280;37372;52.294;5.152;2024-01-30T04:43:04;102496.13;;;7.03;80.44
51289;BME280;37372;52.294;5.152;2024-01-30T04:45:31;102482.19;;;7.02;80.43
51289;BME280;37372;52.294;5.152;2024-01-30T04:47:57;102474.25;;;7.00;80.18
51289;BME280;37372;52.294;5.152;2024-01-30T04:50:31;102481.34;;;7.03;80.36
51289;BME280;37372;52.294;5.152;2024-01-30T04:53:07;102477.78;;;7.01;80.09
51289;BME280;37372;52.294;5.152;2024-01-30T04:55:34;102484.66;;;6.99;80.37
51289;BME280;37372;52.294;5.152;2024-01-30T04:58:02;102475.94;;;6.98;80.60
51289;BME280;37372;52.294;5.152;2024-01-30T05:00:29;102476.63;;;7.14;79.60
51289;BME280;37372;52.294;5.152;2024-01-30T05:02:55;102474.47;;;7.05;80.04
51289;BME280;37372;52.294;5.152;2024-01-30T05:08:34;102469.31;;;7.07;79.84
51289;BME280;37372;52.294;5.152;2024-01-30T05:11:18;102477.16;;;7.07;80.13
51289;BME280;37372;52.294;5.152;2024-01-30T05:13:47;102468.50;;;7.08;79.91
51289;BME280;37372;52.294;5.152;2024-01-30T05:16:15;102473.72;;;7.08;80.01
51289;BME280;37372;52.294;5.152;2024-01-30T05:18:48;102466.75;;;7.08;80.17
51289;BME280;37372;52.294;5.152;2024-01-30T05:21:52;102469.53;;;7.11;79.78
51289;BME280;37372;52.294;5.152;2024-01-30T05:25:02;102473.66;;;7.06;80.09
51289;BME280;37372;52.294;5.152;2024-01-30T05:27:50;102474.75;;;7.11;80.04
51289;BME280;37372;52.294;5.152;2024-01-30T05:30:16;102471.16;;;7.09;80.10
51289;BME280;37372;52.294;5.152;2024-01-30T05:33:04;102471.16;;;7.09;80.50
51289;BME280;37372;52.294;5.152;2024-01-30T05:35:37;102468.25;;;7.23;79.80
51289;BME280;37372;52.294;5.152;2024-01-30T05:38:47;102463.59;;;7.35;79.27
51289;BME280;37372;52.294;5.152;2024-01-30T05:41:24;102471.22;;;7.30;79.40
51289;BME280;37372;52.294;5.152;2024-01-30T05:44:16;102469.19;;;7.23;79.68
51289;BME280;37372;52.294;5.152;2024-01-30T05:47:39;102466.47;;;7.22;80.18
51289;BME280;37372;52.294;5.152;2024-01-30T05:50:08;102478.59;;;7.20;80.27
51289;BME280;37372;52.294;5.152;2024-01-30T05:52:59;102483.88;;;7.21;80.63
51289;BME280;37372;52.294;5.152;2024-01-30T05:55:37;102478.88;;;7.26;80.36
51289;BME280;37372;52.294;5.152;2024-01-30T05:58:06;102478.88;;;7.26;80.10
51289;BME280;37372;52.294;5.152;2024-01-30T06:00:31;102482.16;;;7.22;80.36
51289;BME280;37372;52.294;5.152;2024-01-30T06:02:57;102476.91;;;7.22;80.31
51289;BME280;37372;52.294;5.152;2024-01-30T06:08:30;102475.56;;;7.30;80.02
51289;BME280;37372;52.294;5.152;2024-01-30T06:11:02;102476.31;;;7.27;80.39
51289;BME280;37372;52.294;5.152;2024-01-30T06:13:31;102469.69;;;7.36;79.92
51289;BME280;37372;52.294;5.152;2024-01-30T06:16:17;102475.69;;;7.33;79.97
51289;BME280;37372;52.294;5.152;2024-01-30T06:21:48;102466.31;;;7.38;80.25
51289;BME280;37372;52.294;5.152;2024-01-30T06:24:19;102474.16;;;7.38;79.99
51289;BME280;37372;52.294;5.152;2024-01-30T06:26:44;102460.25;;;7.39;80.07
51289;BME280;37372;52.294;5.152;2024-01-30T06:29:22;102458.03;;;7.48;79.80
51289;BME280;37372;52.294;5.152;2024-01-30T06:32:10;102474.44;;;7.44;79.92
51289;BME280;37372;52.294;5.152;2024-01-30T06:34:46;102470.06;;;7.45;79.92
51289;BME280;37372;52.294;5.152;2024-01-30T06:37:17;102469.31;;;7.47;79.82
51289;BME280;37372;52.294;5.152;2024-01-30T06:39:46;102472.88;;;7.49;79.89
51289;BME280;37372;52.294;5.152;2024-01-30T06:45:26;102484.88;;;7.65;79.52
51289;BME280;37372;52.294;5.152;2024-01-30T06:47:52;102482.34;;;7.67;79.97
51289;BME280;37372;52.294;5.152;2024-01-30T06:50:31;102483.41;;;7.72;79.55
51289;BME280;37372;52.294;5.152;2024-01-30T06:52:56;102483.66;;;7.78;78.96
51289;BME280;37372;52.294;5.152;2024-01-30T06:55:22;102484.75;;;7.83;79.08
51289;BME280;37372;52.294;5.152;2024-01-30T06:57:51;102481.31;;;7.85;78.92
51289;BME280;37372;52.294;5.152;2024-01-30T07:00:17;102482.38;;;7.90;79.17
51289;BME280;37372;52.294;5.152;2024-01-30T07:03:09;102475.66;;;7.96;78.87
51289;BME280;37372;52.294;5.152;2024-01-30T07:05:34;102487.63;;;7.90;79.14
51289;BME280;37372;52.294;5.152;2024-01-30T07:08:03;102481.66;;;7.94;79.21
51289;BME280;37372;52.294;5.152;2024-01-30T07:10:32;102479.81;;;7.91;79.45
51289;BME280;37372;52.294;5.152;2024-01-30T07:13:00;102479.31;;;8.00;79.12
51289;BME280;37372;52.294;5.152;2024-01-30T07:15:26;102483.72;;;8.01;79.19
51289;BME280;37372;52.294;5.152;2024-01-30T07:18:05;102491.47;;;7.99;79.13
51289;BME280;37372;52.294;5.152;2024-01-30T07:20:38;102494.09;;;7.99;79.32
51289;BME280;37372;52.294;5.152;2024-01-30T07:23:06;102489.22;;;8.09;78.56
51289;BME280;37372;52.294;5.152;2024-01-30T07:25:42;102496.16;;;8.07;79.09
51289;BME280;37372;52.294;5.152;2024-01-30T07:28:08;102482.03;;;8.03;79.00
51289;BME280;37372;52.294;5.152;2024-01-30T07:30:42;102490.91;;;8.07;79.12
51289;BME280;37372;52.294;5.152;2024-01-30T07:33:38;102500.28;;;8.02;79.36
51289;BME280;37372;52.294;5.152;2024-01-30T07:36:13;102502.91;;;8.02;79.64
51289;BME280;37372;52.294;5.152;2024-01-30T07:38:38;102503.84;;;8.04;79.64
51289;BME280;37372;52.294;5.152;2024-01-30T07:41:04;102502.63;;;8.16;79.58
51289;BME280;37372;52.294;5.152;2024-01-30T07:46:19;102521.44;;;8.29;78.69
51289;BME280;37372;52.294;5.152;2024-01-30T07:54:30;102521.50;;;8.52;78.23
51289;BME280;37372;52.294;5.152;2024-01-30T07:57:07;102518.72;;;8.48;78.31
51289;BME280;37372;52.294;5.152;2024-01-30T07:59:38;102522.66;;;8.60;78.25
51289;BME280;37372;52.294;5.152;2024-01-30T08:02:04;102528.38;;;8.72;77.95
51289;BME280;37372;52.294;5.152;2024-01-30T08:04:32;102530.56;;;8.84;77.85
51289;BME280;37372;52.294;5.152;2024-01-30T08:07:16;102521.34;;;8.94;77.42
51289;BME280;37372;52.294;5.152;2024-01-30T08:09:43;102528.72;;;8.81;77.43
51289;BME280;37372;52.294;5.152;2024-01-30T08:12:42;102529.97;;;8.91;77.17
51289;BME280;37372;52.294;5.152;2024-01-30T08:15:17;102532.75;;;8.96;77.27
51289;BME280;37372;52.294;5.152;2024-01-30T08:17:49;102526.66;;;8.97;77.44
51289;BME280;37372;52.294;5.152;2024-01-30T08:20:31;102528.84;;;9.09;77.06
51289;BME280;37372;52.294;5.152;2024-01-30T08:23:06;102531.66;;;9.13;77.16
51289;BME280;37372;52.294;5.152;2024-01-30T08:26:14;102539.34;;;9.09;77.26
51289;BME280;37372;52.294;5.152;2024-01-30T08:31:38;102536.91;;;9.13;77.34
51289;BME280;37372;52.294;5.152;2024-01-30T08:34:08;102538.34;;;9.29;76.79
51289;BME280;37372;52.294;5.152;2024-01-30T08:36:33;102546.03;;;9.25;76.68
51289;BME280;37372;52.294;5.152;2024-01-30T08:39:04;102542.47;;;9.23;76.52
51289;BME280;37372;52.294;5.152;2024-01-30T08:41:31;102540.38;;;9.38;76.10
51289;BME280;37372;52.294;5.152;2024-01-30T08:43:57;102531.91;;;9.45;76.07
51289;BME280;37372;52.294;5.152;2024-01-30T08:46:31;102539.34;;;9.33;76.63
51289;BME280;37372;52.294;5.152;2024-01-30T08:48:57;102544.63;;;9.35;76.23
51289;BME280;37372;52.294;5.152;2024-01-30T08:51:22;102544.50;;;9.31;76.35
51289;BME280;37372;52.294;5.152;2024-01-30T08:54:02;102540.31;;;9.37;76.29
51289;BME280;37372;52.294;5.152;2024-01-30T08:56:38;102543.13;;;9.41;75.98
51289;BME280;37372;52.294;5.152;2024-01-30T08:59:03;102549.94;;;9.36;76.30
51289;BME280;37372;52.294;5.152;2024-01-30T09:01:30;102542.56;;;9.26;76.49
51289;BME280;37372;52.294;5.152;2024-01-30T09:04:02;102545.03;;;9.21;76.93
51289;BME280;37372;52.294;5.152;2024-01-30T09:06:56;102559.03;;;9.22;76.78
51289;BME280;37372;52.294;5.152;2024-01-30T09:09:34;102549.50;;;9.24;76.76
51289;BME280;37372;52.294;5.152;2024-01-30T09:15:12;102555.25;;;9.13;77.21
51289;BME280;37372;52.294;5.152;2024-01-30T09:17:38;102556.16;;;9.15;77.17
51289;BME280;37372;52.294;5.152;2024-01-30T09:20:04;102560.09;;;9.27;76.99
51289;BME280;37372;52.294;5.152;2024-01-30T09:22:39;102566.06;;;9.23;77.24
51289;BME280;37372;52.294;5.152;2024-01-30T09:25:11;102567.00;;;9.25;76.98
51289;BME280;37372;52.294;5.152;2024-01-30T09:27:47;102566.25;;;9.29;76.70
51289;BME280;37372;52.294;5.152;2024-01-30T09:30:22;102564.38;;;9.25;77.15
51289;BME280;37372;52.294;5.152;2024-01-30T09:32:48;102561.16;;;9.32;76.83
51289;BME280;37372;52.294;5.152;2024-01-30T09:35:16;102566.44;;;9.33;77.15
51289;BME280;37372;52.294;5.152;2024-01-30T09:38:08;102571.50;;;9.29;77.48
51289;BME280;37372;52.294;5.152;2024-01-30T09:40:34;102568.00;;;9.28;77.16
51289;BME280;37372;52.294;5.152;2024-01-30T09:43:02;102563.81;;;9.33;77.17
51289;BME280;37372;52.294;5.152;2024-01-30T09:45:48;102564.66;;;9.32;76.85
51289;BME280;37372;52.294;5.152;2024-01-30T09:48:46;102563.41;;;9.47;76.70
51289;BME280;37372;52.294;5.152;2024-01-30T09:51:10;102574.69;;;9.44;77.03
51289;BME280;37372;52.294;5.152;2024-01-30T09:53:41;102573.03;;;9.46;76.75
51289;BME280;37372;52.294;5.152;2024-01-30T09:56:08;102571.56;;;9.55;76.53
51289;BME280;37372;52.294;5.152;2024-01-30T09:58:36;102581.31;;;9.59;76.32
51289;BME280;37372;52.294;5.152;2024-01-30T10:01:12;102581.31;;;9.59;76.74
51289;BME280;37372;52.294;5.152;2024-01-30T10:03:43;102572.91;;;9.68;76.27
51289;BME280;37372;52.294;5.152;2024-01-30T10:06:09;102586.16;;;9.72;75.59
51289;BME280;37372;52.294;5.152;2024-01-30T10:08:42;102584.69;;;9.80;75.63
51289;BME280;37372;52.294;5.152;2024-01-30T10:11:10;102584.84;;;9.85;74.65
51289;BME280;37372;52.294;5.152;2024-01-30T10:13:42;102600.31;;;9.77;74.29
51289;BME280;37372;52.294;5.152;2024-01-30T10:16:26;102586.16;;;9.72;73.52
51289;BME280;37372;52.294;5.152;2024-01-30T10:18:52;102583.97;;;9.85;73.14
51289;BME280;37372;52.294;5.152;2024-01-30T10:21:26;102558.97;;;9.96;72.42
51289;BME280;37372;52.294;5.152;2024-01-30T10:24:14;102596.63;;;9.96;71.19
51289;BME280;37372;52.294;5.152;2024-01-30T10:26:40;102607.22;;;9.99;70.66
51289;BME280;37372;52.294;5.152;2024-01-30T10:29:08;102586.47;;;9.81;70.75
51289;BME280;37372;52.294;5.152;2024-01-30T10:31:34;102599.41;;;9.75;71.37
51289;BME280;37372;52.294;5.152;2024-01-30T10:34:03;102593.59;;;9.86;71.00
51289;BME280;37372;52.294;5.152;2024-01-30T10:36:39;102605.00;;;9.86;71.24
51289;BME280;37372;52.294;5.152;2024-01-30T10:39:23;102605.88;;;9.87;71.36
51289;BME280;37372;52.294;5.152;2024-01-30T10:42:05;102601.78;;;9.69;72.16
51289;BME280;37372;52.294;5.152;2024-01-30T10:45:10;102599.91;;;9.65;72.15
51289;BME280;37372;52.294;5.152;2024-01-30T10:48:00;102619.38;;;9.47;72.82
51289;BME280;37372;52.294;5.152;2024-01-30T10:50:34;102617.38;;;9.40;72.79
51289;BME280;37372;52.294;5.152;2024-01-30T10:53:06;102629.59;;;9.40;72.36
51289;BME280;37372;52.294;5.152;2024-01-30T10:55:34;102636.06;;;9.49;72.26
51289;BME280;37372;52.294;5.152;2024-01-30T10:58:08;102635.00;;;9.44;72.20
51289;BME280;37372;52.294;5.152;2024-01-30T11:00:39;102637.56;;;9.43;72.38
51289;BME280;37372;52.294;5.152;2024-01-30T11:03:13;102638.09;;;9.57;71.82
51289;BME280;37372;52.294;5.152;2024-01-30T11:05:40;102638.97;;;9.57;71.35
51289;BME280;37372;52.294;5.152;2024-01-30T11:08:25;102647.38;;;9.48;71.44
51289;BME280;37372;52.294;5.152;2024-01-30T11:11:08;102639.19;;;9.39;70.48
51289;BME280;37372;52.294;5.152;2024-01-30T11:13:37;102643.88;;;9.24;71.07
51289;BME280;37372;52.294;5.152;2024-01-30T11:16:14;102652.63;;;9.02;71.78
51289;BME280;37372;52.294;5.152;2024-01-30T11:21:31;102635.13;;;9.01;71.78
51289;BME280;37372;52.294;5.152;2024-01-30T11:24:05;102646.25;;;8.95;72.16
51289;BME280;37372;52.294;5.152;2024-01-30T11:26:33;102639.22;;;8.94;71.91
51289;BME280;37372;52.294;5.152;2024-01-30T11:29:03;102645.91;;;8.86;72.39
51289;BME280;37372;52.294;5.152;2024-01-30T11:31:32;102636.13;;;8.81;73.24
51289;BME280;37372;52.294;5.152;2024-01-30T11:34:06;102653.00;;;8.88;73.10
51289;BME280;37372;52.294;5.152;2024-01-30T11:36:45;102656.03;;;8.76;73.58
51289;BME280;37372;52.294;5.152;2024-01-30T11:39:23;102648.28;;;8.79;73.20
51289;BME280;37372;52.294;5.152;2024-01-30T11:41:51;102648.94;;;8.74;72.64
51289;BME280;37372;52.294;5.152;2024-01-30T11:44:18;102662.13;;;8.77;72.95
51289;BME280;37372;52.294;5.152;2024-01-30T11:46:46;102656.84;;;8.75;72.78
51289;BME280;37372;52.294;5.152;2024-01-30T11:49:15;102662.31;;;8.81;72.60
51289;BME280;37372;52.294;5.152;2024-01-30T11:51:53;102653.53;;;8.58;73.08
51289;BME280;37372;52.294;5.152;2024-01-30T11:54:22;102645.63;;;8.57;72.87
51289;BME280;37372;52.294;5.152;2024-01-30T11:56:54;102653.59;;;8.60;73.03
51289;BME280;37372;52.294;5.152;2024-01-30T11:59:31;102660.09;;;8.48;73.68
51289;BME280;37372;52.294;5.152;2024-01-30T12:02:18;102668.75;;;8.46;74.58
51289;BME280;37372;52.294;5.152;2024-01-30T12:05:22;102672.28;;;8.27;75.93
51289;BME280;37372;52.294;5.152;2024-01-30T12:07:51;102679.75;;;8.18;76.66
51289;BME280;37372;52.294;5.152;2024-01-30T12:10:20;102678.97;;;8.20;76.67
51289;BME280;37372;52.294;5.152;2024-01-30T12:12:47;102669.22;;;8.16;76.93
51289;BME280;37372;52.294;5.152;2024-01-30T12:15:14;102668.13;;;8.32;76.71
51289;BME280;37372;52.294;5.152;2024-01-30T12:17:41;102662.13;;;8.35;76.45
51289;BME280;37372;52.294;5.152;2024-01-30T12:20:14;102669.53;;;8.24;77.24
51289;BME280;37372;52.294;5.152;2024-01-30T12:22:47;102666.78;;;8.42;76.09
51289;BME280;37372;52.294;5.152;2024-01-30T12:28:25;102668.94;;;8.51;74.77
51289;BME280;37372;52.294;5.152;2024-01-30T12:30:56;102674.28;;;8.54;75.05
51289;BME280;37372;52.294;5.152;2024-01-30T12:37:00;102672.25;;;8.46;74.50
51289;BME280;37372;52.294;5.152;2024-01-30T12:39:40;102683.41;;;8.42;74.17
51289;BME280;37372;52.294;5.152;2024-01-30T12:42:19;102683.34;;;8.20;75.48
51289;BME280;37372;52.294;5.152;2024-01-30T12:44:46;102692.78;;;8.16;75.69
51289;BME280;37372;52.294;5.152;2024-01-30T12:47:14;102690.22;;;8.18;75.86
51289;BME280;37372;52.294;5.152;2024-01-30T12:49:47;102684.59;;;8.08;76.78
51289;BME280;37372;52.294;5.152;2024-01-30T12:52:19;102691.56;;;8.08;77.56
51289;BME280;37372;52.294;5.152;2024-01-30T12:54:46;102697.44;;;8.04;78.31
51289;BME280;37372;52.294;5.152;2024-01-30T12:57:12;102693.13;;;8.04;78.25
51289;BME280;37372;52.294;5.152;2024-01-30T12:59:38;102696.69;;;8.06;78.08
51289;BME280;37372;52.294;5.152;2024-01-30T13:02:04;102685.94;;;8.20;77.46
51289;BME280;37372;52.294;5.152;2024-01-30T13:05:52;102687.13;;;8.07;78.49
51289;BME280;37372;52.294;5.152;2024-01-30T13:08:02;102686.63;;;8.15;77.75
51289;BME280;37372;52.294;5.152;2024-01-30T13:11:48;102698.13;;;8.19;77.49
51289;BME280;37372;52.294;5.152;2024-01-30T13:13:51;102695.44;;;8.18;77.98
51289;BME280;37372;52.294;5.152;2024-01-30T13:17:15;102690.44;;;8.22;77.89
51289;BME280;37372;52.294;5.152;2024-01-30T13:20:24;102688.69;;;8.23;77.47
51289;BME280;37372;52.294;5.152;2024-01-30T13:23:11;102685.25;;;8.24;77.97
51289;BME280;37372;52.294;5.152;2024-01-30T13:26:18;102688.03;;;8.07;78.51
51289;BME280;37372;52.294;5.152;2024-01-30T13:28:47;102691.16;;;7.98;79.13
51289;BME280;37372;52.294;5.152;2024-01-30T13:31:30;102693.13;;;8.04;79.14
51289;BME280;37372;52.294;5.152;2024-01-30T13:34:41;102693.69;;;7.97;79.45
51289;BME280;37372;52.294;5.152;2024-01-30T13:43:23;102704.44;;;7.64;81.42
51289;BME280;37372;52.294;5.152;2024-01-30T13:45:48;102705.19;;;7.61;82.58
51289;BME280;37372;52.294;5.152;2024-01-30T13:48:19;102706.03;;;7.60;82.63
51289;BME280;37372;52.294;5.152;2024-01-30T13:50:55;102709.59;;;7.62;82.01
51289;BME280;37372;52.294;5.152;2024-01-30T13:53:30;102705.88;;;7.57;82.71
51289;BME280;37372;52.294;5.152;2024-01-30T13:56:16;102716.69;;;7.65;82.48
51289;BME280;37372;52.294;5.152;2024-01-30T14:05:54;102731.13;;;7.57;83.33
51289;BME280;37372;52.294;5.152;2024-01-30T14:08:39;102727.09;;;7.45;84.06
51289;BME280;37372;52.294;5.152;2024-01-30T14:11:10;102725.53;;;7.49;83.61
51289;BME280;37372;52.294;5.152;2024-01-30T14:14:07;102727.28;;;7.48;83.67
51289;BME280;37372;52.294;5.152;2024-01-30T14:17:39;102740.72;;;7.38;84.21
51289;BME280;37372;52.294;5.152;2024-01-30T14:20:22;102746.47;;;7.31;84.86
51289;BME280;37372;52.294;5.152;2024-01-30T14:22:47;102741.41;;;7.34;84.62
51289;BME280;37372;52.294;5.152;2024-01-30T14:25:20;102755.16;;;7.30;84.44
51289;BME280;37372;52.294;5.152;2024-01-30T14:27:54;102757.78;;;7.30;84.85
51289;BME280;37372;52.294;5.152;2024-01-30T14:33:20;102752.81;;;7.36;84.23
51289;BME280;37372;52.294;5.152;2024-01-30T14:35:48;102756.59;;;7.23;84.77
51289;BME280;37372;52.294;5.152;2024-01-30T14:38:23;102756.59;;;7.23;84.96
51289;BME280;37372;52.294;5.152;2024-01-30T14:41:26;102764.81;;;7.13;85.21
51289;BME280;37372;52.294;5.152;2024-01-30T14:50:36;102773.28;;;7.27;84.94